Neffsville, Pennsylvania
Current Conditions -  °F | °C
As of 11:53 PM on Thursday 30 Oct 2014 (Local Time) from KLNS Reporting Station
Overcast Overcast  
Wind Chill: 44°   Ceiling: 5000
Heat Index: 44°   Visibility: 10mi
Dew Point: 38°   Wind: 3mph
Humidity: 79%   Direction: 90°E
Pressure: 30.04"   Gusts: NA
Location:  40.0734°N, 76.3168°W
Report Text: KLNS 310353Z AUTO 09003KT 10SM OVC050 07/03 A3004 RMK AO2 SLP172 T00670033 $
Loading
Personal Weather Stations






























Interactive Weather Map
Tropical Storm Tracking
New forecast layout! Learn more

10-Day Weather Forecast

Advertisements
Track Severe Weather on mobile